sensor_id;sensor_type;location;lat;lon;timestamp;pressure;altitude;pressure_sealevel;temperature;humidity
38786;BME280;24535;45.508;12.252;2022-11-20T03:49:49;100852.59;;;13.46;55.61
38786;BME280;24535;45.508;12.252;2022-11-20T04:04:56;100861.81;;;13.40;55.94
38786;BME280;24535;45.508;12.252;2022-11-20T04:23:00;100864.47;;;13.29;56.27
38786;BME280;24535;45.508;12.252;2022-11-20T07:50:22;101039.88;;;12.69;60.34
38786;BME280;24535;45.508;12.252;2022-11-20T07:53:06;101041.88;;;12.78;60.35
38786;BME280;24535;45.508;12.252;2022-11-20T07:58:51;101050.50;;;12.93;60.23
38786;BME280;24535;45.508;12.252;2022-11-20T08:01:24;101062.72;;;13.06;60.41
38786;BME280;24535;45.508;12.252;2022-11-20T08:03:52;101058.91;;;13.10;59.99
38786;BME280;24535;45.508;12.252;2022-11-20T08:13:00;101069.66;;;13.33;58.79
38786;BME280;24535;45.508;12.252;2022-11-20T08:15:50;101076.84;;;13.31;59.04
38786;BME280;24535;45.508;12.252;2022-11-20T08:18:18;101078.09;;;13.38;59.69
38786;BME280;24535;45.508;12.252;2022-11-20T08:23:12;101082.94;;;13.44;58.16
38786;BME280;24535;45.508;12.252;2022-11-20T08:25:49;101079.09;;;13.48;57.83
38786;BME280;24535;45.508;12.252;2022-11-20T08:30:50;101082.16;;;13.55;57.79
38786;BME280;24535;45.508;12.252;2022-11-20T09:53:19;101145.69;;;15.94;53.86
38786;BME280;24535;45.508;12.252;2022-11-20T09:56:06;101136.88;;;15.93;54.85
38786;BME280;24535;45.508;12.252;2022-11-20T09:58:43;101138.91;;;16.01;54.42
38786;BME280;24535;45.508;12.252;2022-11-20T10:01:21;101136.56;;;16.07;55.38
38786;BME280;24535;45.508;12.252;2022-11-20T10:06:34;101137.94;;;16.23;54.64
38786;BME280;24535;45.508;12.252;2022-11-20T10:14:39;101133.97;;;16.38;52.88
38786;BME280;24535;45.508;12.252;2022-11-20T10:20:12;101126.38;;;16.54;52.61
38786;BME280;24535;45.508;12.252;2022-11-20T10:25:37;101136.47;;;16.61;51.85
38786;BME280;24535;45.508;12.252;2022-11-20T10:37:05;101138.09;;;16.73;51.32
38786;BME280;24535;45.508;12.252;2022-11-20T10:39:50;101125.53;;;16.75;49.54
38786;BME280;24535;45.508;12.252;2022-11-20T10:42:42;101130.00;;;16.74;50.88
38786;BME280;24535;45.508;12.252;2022-11-20T11:04:30;101118.31;;;16.96;51.23
38786;BME280;24535;45.508;12.252;2022-11-20T11:07:09;101122.13;;;16.94;50.47
38786;BME280;24535;45.508;12.252;2022-11-20T11:10:18;101115.56;;;16.98;50.50
38786;BME280;24535;45.508;12.252;2022-11-20T11:12:46;101119.75;;;17.00;50.87
38786;BME280;24535;45.508;12.252;2022-11-20T11:15:43;101111.19;;;16.97;51.59
38786;BME280;24535;45.508;12.252;2022-11-20T11:18:10;101106.69;;;16.97;51.29
38786;BME280;24535;45.508;12.252;2022-11-20T11:20:36;101101.38;;;16.97;50.59
38786;BME280;24535;45.508;12.252;2022-11-20T11:25:37;101101.94;;;17.01;51.88
38786;BME280;24535;45.508;12.252;2022-11-20T11:28:36;101108.81;;;17.03;50.91
38786;BME280;24535;45.508;12.252;2022-11-20T11:31:03;101110.81;;;17.01;51.63
38786;BME280;24535;45.508;12.252;2022-11-20T11:33:34;101099.16;;;17.02;50.51
38786;BME280;24535;45.508;12.252;2022-11-20T11:36:17;101108.56;;;17.07;51.08
38786;BME280;24535;45.508;12.252;2022-11-20T11:39:14;101099.84;;;17.04;50.67
38786;BME280;24535;45.508;12.252;2022-11-20T11:41:53;101099.75;;;17.06;49.56
38786;BME280;24535;45.508;12.252;2022-11-20T11:44:31;101093.44;;;17.07;49.16
38786;BME280;24535;45.508;12.252;2022-11-20T11:47:37;101092.19;;;17.11;49.19
38786;BME280;24535;45.508;12.252;2022-11-20T12:42:54;101076.84;;;16.63;49.06
38786;BME280;24535;45.508;12.252;2022-11-20T12:46:08;101075.19;;;16.62;48.65
38786;BME280;24535;45.508;12.252;2022-11-20T12:51:58;101065.53;;;16.61;48.04
38786;BME280;24535;45.508;12.252;2022-11-20T12:54:48;101061.28;;;16.59;46.22
38786;BME280;24535;45.508;12.252;2022-11-20T13:05:58;101046.56;;;16.45;47.51
38786;BME280;24535;45.508;12.252;2022-11-20T13:25:34;101045.78;;;16.33;46.84
38786;BME280;24535;45.508;12.252;2022-11-20T13:28:04;101043.97;;;16.34;47.12
38786;BME280;24535;45.508;12.252;2022-11-20T13:42:38;101024.59;;;16.22;46.90
38786;BME280;24535;45.508;12.252;2022-11-20T13:49:07;101026.13;;;16.24;47.84
38786;BME280;24535;45.508;12.252;2022-11-20T14:00:55;101024.19;;;16.26;48.81
38786;BME280;24535;45.508;12.252;2022-11-20T14:03:29;101018.31;;;16.23;48.17
38786;BME280;24535;45.508;12.252;2022-11-20T14:06:12;101022.91;;;16.21;48.28
38786;BME280;24535;45.508;12.252;2022-11-20T14:08:42;101016.63;;;16.22;47.93
38786;BME280;24535;45.508;12.252;2022-11-20T14:11:23;101021.69;;;16.25;47.35
38786;BME280;24535;45.508;12.252;2022-11-20T14:17:36;101014.06;;;16.20;47.58
38786;BME280;24535;45.508;12.252;2022-11-20T14:20:05;101011.81;;;16.16;47.54
38786;BME280;24535;45.508;12.252;2022-11-20T16:27:46;101055.03;;;14.10;55.88
38786;BME280;24535;45.508;12.252;2022-11-20T18:49:42;101090.78;;;12.96;60.00
38786;BME280;24535;45.508;12.252;2022-11-20T18:55:46;101078.72;;;12.92;60.50
38786;BME280;24535;45.508;12.252;2022-11-20T18:58:11;101089.59;;;13.00;60.13
38786;BME280;24535;45.508;12.252;2022-11-20T19:00:37;101089.50;;;13.02;60.28
38786;BME280;24535;45.508;12.252;2022-11-20T19:03:02;101094.47;;;13.06;59.88
38786;BME280;24535;45.508;12.252;2022-11-20T19:08:34;101093.63;;;13.06;60.59
38786;BME280;24535;45.508;12.252;2022-11-20T19:11:07;101105.78;;;13.08;60.45
38786;BME280;24535;45.508;12.252;2022-11-20T19:13:33;101093.72;;;13.04;60.07
38786;BME280;24535;45.508;12.252;2022-11-20T19:16:08;101102.28;;;13.08;59.71
38786;BME280;24535;45.508;12.252;2022-11-20T19:18:34;101097.22;;;13.05;59.46
38786;BME280;24535;45.508;12.252;2022-11-20T19:21:26;101100.72;;;13.05;60.66
38786;BME280;24535;45.508;12.252;2022-11-20T19:23:54;101101.66;;;13.04;60.62
38786;BME280;24535;45.508;12.252;2022-11-20T19:26:20;101096.16;;;13.07;60.31
38786;BME280;24535;45.508;12.252;2022-11-20T19:28:46;101101.97;;;13.13;60.03
38786;BME280;24535;45.508;12.252;2022-11-20T19:31:14;101107.16;;;13.14;59.79
38786;BME280;24535;45.508;12.252;2022-11-20T19:33:46;101103.38;;;13.05;59.10
38786;BME280;24535;45.508;12.252;2022-11-20T19:36:13;101112.22;;;13.04;59.08
38786;BME280;24535;45.508;12.252;2022-11-20T19:38:41;101110.75;;;13.00;59.29
38786;BME280;24535;45.508;12.252;2022-11-20T19:41:08;101112.56;;;13.00;59.79
38786;BME280;24535;45.508;12.252;2022-11-20T19:43:34;101114.38;;;12.99;59.19
38786;BME280;24535;45.508;12.252;2022-11-20T19:46:00;101115.53;;;12.95;59.56
38786;BME280;24535;45.508;12.252;2022-11-20T19:48:29;101120.63;;;12.98;60.05
38786;BME280;24535;45.508;12.252;2022-11-20T19:50:55;101113.53;;;12.99;59.51
38786;BME280;24535;45.508;12.252;2022-11-20T19:53:24;101117.75;;;13.01;59.67
38786;BME280;24535;45.508;12.252;2022-11-20T19:55:56;101110.75;;;13.00;59.97
38786;BME280;24535;45.508;12.252;2022-11-20T19:58:23;101112.69;;;12.98;59.25
38786;BME280;24535;45.508;12.252;2022-11-20T20:00:49;101116.16;;;12.99;58.69
38786;BME280;24535;45.508;12.252;2022-11-20T20:03:15;101104.44;;;12.90;59.35
38786;BME280;24535;45.508;12.252;2022-11-20T20:05:40;101106.88;;;12.93;58.97
38786;BME280;24535;45.508;12.252;2022-11-20T20:08:05;101107.94;;;12.91;59.51
38786;BME280;24535;45.508;12.252;2022-11-20T20:10:31;101103.47;;;12.91;59.38
38786;BME280;24535;45.508;12.252;2022-11-20T20:12:56;101107.41;;;12.85;59.74
38786;BME280;24535;45.508;12.252;2022-11-20T20:15:22;101106.56;;;12.85;59.33
38786;BME280;24535;45.508;12.252;2022-11-20T20:17:50;101093.56;;;12.82;59.38
38786;BME280;24535;45.508;12.252;2022-11-20T20:20:16;101101.72;;;12.79;59.25
38786;BME280;24535;45.508;12.252;2022-11-20T20:22:42;101091.59;;;12.73;59.47
38786;BME280;24535;45.508;12.252;2022-11-20T20:25:07;101095.28;;;12.70;59.27
38786;BME280;24535;45.508;12.252;2022-11-20T20:27:33;101092.84;;;12.67;59.96
38786;BME280;24535;45.508;12.252;2022-11-20T20:30:01;101090.31;;;12.66;59.82
38786;BME280;24535;45.508;12.252;2022-11-20T20:32:27;101092.19;;;12.63;59.32
38786;BME280;24535;45.508;12.252;2022-11-20T20:34:52;101075.19;;;12.55;59.76
38786;BME280;24535;45.508;12.252;2022-11-20T20:37:18;101082.06;;;12.57;60.00
38786;BME280;24535;45.508;12.252;2022-11-20T20:39:43;101081.56;;;12.52;59.82
38786;BME280;24535;45.508;12.252;2022-11-20T20:42:08;101082.41;;;12.53;59.85
38786;BME280;24535;45.508;12.252;2022-11-20T20:44:34;101071.19;;;12.49;59.80
38786;BME280;24535;45.508;12.252;2022-11-20T20:47:18;101081.56;;;12.52;59.93
38786;BME280;24535;45.508;12.252;2022-11-20T20:49:43;101077.13;;;12.53;59.41
38786;BME280;24535;45.508;12.252;2022-11-20T20:52:09;101077.13;;;12.53;58.71
38786;BME280;24535;45.508;12.252;2022-11-20T20:54:34;101074.47;;;12.53;59.59
38786;BME280;24535;45.508;12.252;2022-11-20T20:57:03;101070.97;;;12.52;59.41
38786;BME280;24535;45.508;12.252;2022-11-20T20:59:28;101076.16;;;12.54;58.93
38786;BME280;24535;45.508;12.252;2022-11-20T21:01:53;101073.50;;;12.54;59.57
38786;BME280;24535;45.508;12.252;2022-11-20T21:04:19;101070.16;;;12.52;59.80
38786;BME280;24535;45.508;12.252;2022-11-20T21:06:46;101079.84;;;12.51;59.45
38786;BME280;24535;45.508;12.252;2022-11-20T21:09:17;101072.25;;;12.47;59.68
38786;BME280;24535;45.508;12.252;2022-11-20T21:11:44;101062.44;;;12.36;59.69
38786;BME280;24535;45.508;12.252;2022-11-20T21:14:18;101073.28;;;12.31;59.43
38786;BME280;24535;45.508;12.252;2022-11-20T21:16:44;101074.56;;;12.26;59.54
38786;BME280;24535;45.508;12.252;2022-11-20T21:19:13;101063.56;;;12.19;60.08
38786;BME280;24535;45.508;12.252;2022-11-20T21:21:38;101075.22;;;12.17;59.72
38786;BME280;24535;45.508;12.252;2022-11-20T21:27:05;101061.34;;;12.00;60.96
38786;BME280;24535;45.508;12.252;2022-11-20T21:29:31;101068.13;;;12.04;60.37
38786;BME280;24535;45.508;12.252;2022-11-20T21:31:57;101061.34;;;12.00;59.85
38786;BME280;24535;45.508;12.252;2022-11-20T21:34:23;101062.31;;;11.99;59.43
38786;BME280;24535;45.508;12.252;2022-11-20T21:39:26;101055.94;;;11.89;59.96
38786;BME280;24535;45.508;12.252;2022-11-20T21:41:51;101062.81;;;11.92;60.09
38786;BME280;24535;45.508;12.252;2022-11-20T21:44:17;101053.63;;;11.84;60.52
38786;BME280;24535;45.508;12.252;2022-11-20T21:46:52;101069.25;;;11.87;60.85
38786;BME280;24535;45.508;12.252;2022-11-20T21:49:20;101066.50;;;11.89;61.03
38786;BME280;24535;45.508;12.252;2022-11-20T21:51:54;101071.28;;;11.97;61.18
38786;BME280;24535;45.508;12.252;2022-11-20T21:54:20;101049.63;;;11.92;60.26
38786;BME280;24535;45.508;12.252;2022-11-20T21:56:45;101056.38;;;11.96;60.59
38786;BME280;24535;45.508;12.252;2022-11-20T21:59:11;101048.47;;;11.96;60.84
38786;BME280;24535;45.508;12.252;2022-11-20T22:01:38;101047.50;;;11.97;60.36
38786;BME280;24535;45.508;12.252;2022-11-20T22:04:03;101040.53;;;11.96;60.39
38786;BME280;24535;45.508;12.252;2022-11-20T22:06:33;101046.66;;;11.96;60.72
38786;BME280;24535;45.508;12.252;2022-11-20T22:09:02;101049.09;;;11.99;60.60
38786;BME280;24535;45.508;12.252;2022-11-20T22:11:27;101048.34;;;11.97;60.37
38786;BME280;24535;45.508;12.252;2022-11-20T22:13:56;101048.47;;;11.96;60.17
38786;BME280;24535;45.508;12.252;2022-11-20T22:16:43;101059.56;;;12.01;60.05
38786;BME280;24535;45.508;12.252;2022-11-20T22:19:24;101058.72;;;12.00;60.12
38786;BME280;24535;45.508;12.252;2022-11-20T22:21:50;101073.28;;;12.06;60.93
38786;BME280;24535;45.508;12.252;2022-11-20T22:24:17;101070.31;;;12.10;60.22
38786;BME280;24535;45.508;12.252;2022-11-20T22:27:04;101075.09;;;12.18;60.01
38786;BME280;24535;45.508;12.252;2022-11-20T22:29:49;101067.91;;;12.20;60.06
38786;BME280;24535;45.508;12.252;2022-11-20T22:32:15;101078.38;;;12.22;60.48
38786;BME280;24535;45.508;12.252;2022-11-20T22:34:40;101074.25;;;12.18;59.95
38786;BME280;24535;45.508;12.252;2022-11-20T22:37:06;101091.47;;;12.23;60.53
38786;BME280;24535;45.508;12.252;2022-11-20T22:39:31;101097.63;;;12.24;60.25
38786;BME280;24535;45.508;12.252;2022-11-20T22:42:00;101100.78;;;12.29;60.84
38786;BME280;24535;45.508;12.252;2022-11-20T22:44:25;101103.63;;;12.38;60.99
38786;BME280;24535;45.508;12.252;2022-11-20T22:46:51;101100.66;;;12.43;60.45
38786;BME280;24535;45.508;12.252;2022-11-20T22:49:16;101117.78;;;12.50;60.30
38786;BME280;24535;45.508;12.252;2022-11-20T22:51:41;101109.16;;;12.48;60.20
38786;BME280;24535;45.508;12.252;2022-11-20T22:54:13;101115.91;;;12.52;60.12
38786;BME280;24535;45.508;12.252;2022-11-20T22:56:39;101117.47;;;12.55;59.70
38786;BME280;24535;45.508;12.252;2022-11-20T22:59:04;101118.22;;;12.57;59.30
38786;BME280;24535;45.508;12.252;2022-11-20T23:01:32;101105.66;;;12.48;59.21
38786;BME280;24535;45.508;12.252;2022-11-20T23:04:00;101109.78;;;12.52;59.08
38786;BME280;24535;45.508;12.252;2022-11-20T23:06:27;101110.81;;;12.49;58.88
38786;BME280;24535;45.508;12.252;2022-11-20T23:11:29;101118.13;;;12.46;58.64
38786;BME280;24535;45.508;12.252;2022-11-20T23:16:46;101122.44;;;12.47;58.78
38786;BME280;24535;45.508;12.252;2022-11-20T23:19:22;101114.84;;;12.42;59.07
38786;BME280;24535;45.508;12.252;2022-11-20T23:22:00;101113.34;;;12.38;58.55
38786;BME280;24535;45.508;12.252;2022-11-20T23:24:26;101122.13;;;12.38;59.11
38786;BME280;24535;45.508;12.252;2022-11-20T23:26:51;101117.16;;;12.34;58.13
38786;BME280;24535;45.508;12.252;2022-11-20T23:29:23;101107.94;;;12.27;58.81
38786;BME280;24535;45.508;12.252;2022-11-20T23:31:51;101111.88;;;12.21;58.80
38786;BME280;24535;45.508;12.252;2022-11-20T23:34:16;101111.75;;;12.23;58.68
38786;BME280;24535;45.508;12.252;2022-11-20T23:36:42;101105.81;;;12.19;58.87
38786;BME280;24535;45.508;12.252;2022-11-20T23:39:16;101097.19;;;12.17;58.53
38786;BME280;24535;45.508;12.252;2022-11-20T23:41:42;101093.16;;;12.11;58.30
38786;BME280;24535;45.508;12.252;2022-11-20T23:44:07;101090.72;;;12.08;58.17
38786;BME280;24535;45.508;12.252;2022-11-20T23:46:39;101089.31;;;12.03;58.06
38786;BME280;24535;45.508;12.252;2022-11-20T23:49:04;101094.72;;;12.01;58.61
38786;BME280;24535;45.508;12.252;2022-11-20T23:51:33;101098.31;;;12.00;59.00
38786;BME280;24535;45.508;12.252;2022-11-20T23:53:58;101086.59;;;11.92;58.57
38786;BME280;24535;45.508;12.252;2022-11-20T23:58:59;101074.72;;;11.84;58.38
